sensor_id;sensor_type;location;lat;lon;timestamp;pressure;altitude;pressure_sealevel;temperature;humidity
48872;BME280;36154;51.674;7.824;2022-12-18T00:01:46;102052.56;;;19.65;38.59
48872;BME280;36154;51.674;7.824;2022-12-18T00:04:22;102048.22;;;19.62;38.50
48872;BME280;36154;51.674;7.824;2022-12-18T00:06:48;102051.66;;;19.61;38.66
48872;BME280;36154;51.674;7.824;2022-12-18T00:09:14;102059.41;;;19.61;38.55
48872;BME280;36154;51.674;7.824;2022-12-18T00:11:39;102057.72;;;19.58;38.49
48872;BME280;36154;51.674;7.824;2022-12-18T00:14:05;102071.50;;;19.57;38.48
48872;BME280;36154;51.674;7.824;2022-12-18T00:16:30;102064.63;;;19.56;38.53
48872;BME280;36154;51.674;7.824;2022-12-18T00:18:58;102054.28;;;19.55;38.41
48872;BME280;36154;51.674;7.824;2022-12-18T00:21:24;102055.97;;;19.54;38.67
48872;BME280;36154;51.674;7.824;2022-12-18T00:23:50;102066.31;;;19.54;38.49
48872;BME280;36154;51.674;7.824;2022-12-18T00:28:43;102071.53;;;19.51;38.60
48872;BME280;36154;51.674;7.824;2022-12-18T00:31:11;102069.78;;;19.50;38.61
48872;BME280;36154;51.674;7.824;2022-12-18T00:33:38;102073.22;;;19.49;38.53
48872;BME280;36154;51.674;7.824;2022-12-18T00:36:09;102069.78;;;19.47;38.64
48872;BME280;36154;51.674;7.824;2022-12-18T00:38:35;102072.38;;;19.47;38.39
48872;BME280;36154;51.674;7.824;2022-12-18T00:41:01;102070.66;;;19.45;38.60
48872;BME280;36154;51.674;7.824;2022-12-18T00:43:26;102053.44;;;19.37;38.35
48872;BME280;36154;51.674;7.824;2022-12-18T00:45:52;102069.78;;;19.47;38.78
48872;BME280;36154;51.674;7.824;2022-12-18T00:48:18;102068.09;;;19.46;38.64
48872;BME280;36154;51.674;7.824;2022-12-18T00:50:43;102068.94;;;19.47;38.74
48872;BME280;36154;51.674;7.824;2022-12-18T00:53:08;102066.34;;;19.45;38.80
48872;BME280;36154;51.674;7.824;2022-12-18T00:55:34;102070.66;;;19.45;38.81
48872;BME280;36154;51.674;7.824;2022-12-18T00:57:59;102069.78;;;19.44;38.68
48872;BME280;36154;51.674;7.824;2022-12-18T01:00:24;102064.63;;;19.44;38.71
48872;BME280;36154;51.674;7.824;2022-12-18T01:02:50;102064.63;;;19.44;38.77
48872;BME280;36154;51.674;7.824;2022-12-18T01:05:15;102064.63;;;19.44;38.54
48872;BME280;36154;51.674;7.824;2022-12-18T01:07:40;102062.91;;;19.43;38.78
48872;BME280;36154;51.674;7.824;2022-12-18T01:10:07;102066.34;;;19.42;38.86
48872;BME280;36154;51.674;7.824;2022-12-18T01:12:33;102066.34;;;19.42;38.85
48872;BME280;36154;51.674;7.824;2022-12-18T01:14:58;102068.09;;;19.42;38.81
48872;BME280;36154;51.674;7.824;2022-12-18T01:17:24;102071.53;;;19.42;38.87
48872;BME280;36154;51.674;7.824;2022-12-18T01:19:49;102074.97;;;19.41;38.74
48872;BME280;36154;51.674;7.824;2022-12-18T01:22:14;102072.41;;;19.38;38.83
48872;BME280;36154;51.674;7.824;2022-12-18T01:24:40;102071.53;;;19.39;38.67
48872;BME280;36154;51.674;7.824;2022-12-18T01:27:05;102074.09;;;19.39;38.76
48872;BME280;36154;51.674;7.824;2022-12-18T01:29:31;102080.16;;;19.39;38.80
48872;BME280;36154;51.674;7.824;2022-12-18T01:31:56;102082.75;;;19.39;38.83
48872;BME280;36154;51.674;7.824;2022-12-18T01:34:23;102075.84;;;19.38;38.66
48872;BME280;36154;51.674;7.824;2022-12-18T01:36:48;102077.56;;;19.38;38.74
48872;BME280;36154;51.674;7.824;2022-12-18T01:39:14;102068.09;;;19.37;38.67
48872;BME280;36154;51.674;7.824;2022-12-18T01:41:40;102068.94;;;19.37;38.68
48872;BME280;36154;51.674;7.824;2022-12-18T01:45:00;102061.19;;;19.36;38.51
48872;BME280;36154;51.674;7.824;2022-12-18T01:47:47;102064.66;;;19.35;38.76
48872;BME280;36154;51.674;7.824;2022-12-18T01:50:19;102057.75;;;19.34;38.60
48872;BME280;36154;51.674;7.824;2022-12-18T01:52:48;102056.88;;;19.32;38.63
48872;BME280;36154;51.674;7.824;2022-12-18T01:55:16;102047.41;;;19.31;38.77
48872;BME280;36154;51.674;7.824;2022-12-18T01:57:43;102054.31;;;19.32;38.83
48872;BME280;36154;51.674;7.824;2022-12-18T02:00:15;102059.47;;;19.32;38.64
48872;BME280;36154;51.674;7.824;2022-12-18T02:02:41;102052.56;;;19.31;38.57
48872;BME280;36154;51.674;7.824;2022-12-18T02:05:09;102056.03;;;19.30;38.50
48872;BME280;36154;51.674;7.824;2022-12-18T02:13:01;102071.53;;;19.30;38.54
48872;BME280;36154;51.674;7.824;2022-12-18T02:15:32;102068.97;;;19.28;38.64
48872;BME280;36154;51.674;7.824;2022-12-18T02:18:14;102062.06;;;19.27;38.64
48872;BME280;36154;51.674;7.824;2022-12-18T02:20:55;102050.00;;;19.25;38.61
48872;BME280;36154;51.674;7.824;2022-12-18T02:23:47;102049.13;;;19.26;38.70
48872;BME280;36154;51.674;7.824;2022-12-18T02:26:31;102052.59;;;19.25;38.54
48872;BME280;36154;51.674;7.824;2022-12-18T02:29:13;102041.38;;;19.23;38.78
48872;BME280;36154;51.674;7.824;2022-12-18T02:31:45;102051.72;;;19.23;38.54
48872;BME280;36154;51.674;7.824;2022-12-18T02:34:12;102052.59;;;19.22;38.79
48872;BME280;36154;51.674;7.824;2022-12-18T02:36:41;102044.00;;;19.21;38.56
48872;BME280;36154;51.674;7.824;2022-12-18T02:39:10;102035.34;;;19.20;38.46
48872;BME280;36154;51.674;7.824;2022-12-18T02:41:38;102030.19;;;19.20;38.71
48872;BME280;36154;51.674;7.824;2022-12-18T02:44:08;102027.59;;;19.19;38.23
48872;BME280;36154;51.674;7.824;2022-12-18T02:46:37;102037.09;;;19.20;38.70
48872;BME280;36154;51.674;7.824;2022-12-18T02:49:12;102042.25;;;19.18;38.63
48872;BME280;36154;51.674;7.824;2022-12-18T02:54:40;102051.75;;;19.18;38.70
48872;BME280;36154;51.674;7.824;2022-12-18T02:57:17;102049.16;;;19.16;38.58
48872;BME280;36154;51.674;7.824;2022-12-18T02:59:56;102055.16;;;19.17;38.58
48872;BME280;36154;51.674;7.824;2022-12-18T03:02:29;102044.00;;;19.16;38.53
48872;BME280;36154;51.674;7.824;2022-12-18T03:05:16;102057.75;;;19.15;38.64
48872;BME280;36154;51.674;7.824;2022-12-18T03:07:49;102048.28;;;19.16;38.39
48872;BME280;36154;51.674;7.824;2022-12-18T03:10:19;102042.25;;;19.14;38.65
48872;BME280;36154;51.674;7.824;2022-12-18T03:12:54;102037.97;;;19.08;38.79
48872;BME280;36154;51.674;7.824;2022-12-18T03:15:29;102042.25;;;19.14;38.73
48872;BME280;36154;51.674;7.824;2022-12-18T03:17:59;102043.13;;;19.11;38.63
48872;BME280;36154;51.674;7.824;2022-12-18T03:20:30;102042.25;;;19.12;38.45
48872;BME280;36154;51.674;7.824;2022-12-18T03:23:02;102039.66;;;19.12;38.37
48872;BME280;36154;51.674;7.824;2022-12-18T03:25:30;102035.38;;;19.11;38.34
48872;BME280;36154;51.674;7.824;2022-12-18T03:27:58;102033.66;;;19.10;38.59
48872;BME280;36154;51.674;7.824;2022-12-18T03:30:26;102034.50;;;19.11;38.75
48872;BME280;36154;51.674;7.824;2022-12-18T03:35:33;102033.66;;;19.10;38.37
48872;BME280;36154;51.674;7.824;2022-12-18T03:38:00;102037.06;;;19.09;38.44
48872;BME280;36154;51.674;7.824;2022-12-18T03:40:53;102048.28;;;19.08;38.29
48872;BME280;36154;51.674;7.824;2022-12-18T03:43:45;102041.38;;;19.07;38.51
48872;BME280;36154;51.674;7.824;2022-12-18T03:46:20;102038.81;;;19.07;38.49
48872;BME280;36154;51.674;7.824;2022-12-18T03:48:55;102039.69;;;19.06;38.67
48872;BME280;36154;51.674;7.824;2022-12-18T03:51:30;102037.09;;;19.06;38.48
48872;BME280;36154;51.674;7.824;2022-12-18T03:54:01;102033.63;;;19.06;38.29
48872;BME280;36154;51.674;7.824;2022-12-18T03:56:34;102032.78;;;19.04;38.43
48872;BME280;36154;51.674;7.824;2022-12-18T03:59:01;102033.63;;;19.02;38.48
48872;BME280;36154;51.674;7.824;2022-12-18T04:01:32;102037.09;;;19.01;38.60
48872;BME280;36154;51.674;7.824;2022-12-18T04:04:00;102032.78;;;19.00;38.58
48872;BME280;36154;51.674;7.824;2022-12-18T04:06:28;102041.41;;;19.01;38.50
48872;BME280;36154;51.674;7.824;2022-12-18T04:08:53;102041.41;;;19.01;38.44
48872;BME280;36154;51.674;7.824;2022-12-18T04:11:19;102049.13;;;19.04;38.63
48872;BME280;36154;51.674;7.824;2022-12-18T04:13:44;102040.53;;;19.05;38.67
48872;BME280;36154;51.674;7.824;2022-12-18T04:16:10;102043.13;;;19.08;38.74
48872;BME280;36154;51.674;7.824;2022-12-18T04:18:35;102037.97;;;19.08;38.62
48872;BME280;36154;51.674;7.824;2022-12-18T04:21:01;102037.06;;;19.12;38.64
48872;BME280;36154;51.674;7.824;2022-12-18T04:23:26;102041.41;;;19.15;38.74
48872;BME280;36154;51.674;7.824;2022-12-18T04:25:53;102040.53;;;19.17;38.72
48872;BME280;36154;51.674;7.824;2022-12-18T04:28:18;102037.94;;;19.20;38.63
48872;BME280;36154;51.674;7.824;2022-12-18T04:30:43;102037.94;;;19.22;38.63
48872;BME280;36154;51.674;7.824;2022-12-18T04:33:11;102035.38;;;19.24;38.53
48872;BME280;36154;51.674;7.824;2022-12-18T04:35:36;102044.84;;;19.25;38.49
48872;BME280;36154;51.674;7.824;2022-12-18T04:38:02;102044.84;;;19.28;38.51
48872;BME280;36154;51.674;7.824;2022-12-18T04:40:27;102040.53;;;19.30;38.40
48872;BME280;36154;51.674;7.824;2022-12-18T04:42:52;102038.81;;;19.32;38.61
48872;BME280;36154;51.674;7.824;2022-12-18T04:45:18;102038.81;;;19.35;38.45
48872;BME280;36154;51.674;7.824;2022-12-18T04:47:43;102035.34;;;19.36;38.57
48872;BME280;36154;51.674;7.824;2022-12-18T04:50:08;102034.47;;;19.38;38.54
48872;BME280;36154;51.674;7.824;2022-12-18T04:52:34;102041.38;;;19.39;38.34
48872;BME280;36154;51.674;7.824;2022-12-18T04:55:00;102041.34;;;19.41;38.57
48872;BME280;36154;51.674;7.824;2022-12-18T04:57:25;102040.50;;;19.44;38.31
48872;BME280;36154;51.674;7.824;2022-12-18T04:59:51;102031.91;;;19.43;38.43
48872;BME280;36154;51.674;7.824;2022-12-18T05:02:16;102037.91;;;19.47;38.45
48872;BME280;36154;51.674;7.824;2022-12-18T05:04:41;102034.44;;;19.48;38.50
48872;BME280;36154;51.674;7.824;2022-12-18T05:07:07;102034.44;;;19.49;38.53
48872;BME280;36154;51.674;7.824;2022-12-18T05:09:32;102020.69;;;19.50;38.31
48872;BME280;36154;51.674;7.824;2022-12-18T05:11:57;102026.69;;;19.52;38.25
48872;BME280;36154;51.674;7.824;2022-12-18T05:14:22;102016.34;;;19.52;38.27
48872;BME280;36154;51.674;7.824;2022-12-18T05:16:48;102030.13;;;19.54;38.48
48872;BME280;36154;51.674;7.824;2022-12-18T05:19:13;102025.84;;;19.55;38.43
48872;BME280;36154;51.674;7.824;2022-12-18T05:21:38;102026.69;;;19.55;38.36
48872;BME280;36154;51.674;7.824;2022-12-18T05:24:04;102019.78;;;19.57;38.41
48872;BME280;36154;51.674;7.824;2022-12-18T05:26:29;102018.09;;;19.60;38.66
48872;BME280;36154;51.674;7.824;2022-12-18T05:28:55;102012.91;;;19.60;38.32
48872;BME280;36154;51.674;7.824;2022-12-18T05:31:20;102008.59;;;19.62;38.30
48872;BME280;36154;51.674;7.824;2022-12-18T05:33:45;102015.50;;;19.63;38.33
48872;BME280;36154;51.674;7.824;2022-12-18T05:36:10;102012.03;;;19.62;38.32
48872;BME280;36154;51.674;7.824;2022-12-18T05:38:38;102002.56;;;19.63;38.36
48872;BME280;36154;51.674;7.824;2022-12-18T05:41:05;102006.03;;;19.65;38.17
48872;BME280;36154;51.674;7.824;2022-12-18T05:43:30;102011.19;;;19.66;38.44
48872;BME280;36154;51.674;7.824;2022-12-18T05:45:56;102012.91;;;19.66;38.22
48872;BME280;36154;51.674;7.824;2022-12-18T05:48:22;102018.94;;;19.68;38.24
48872;BME280;36154;51.674;7.824;2022-12-18T05:50:49;102001.72;;;19.64;38.14
48872;BME280;36154;51.674;7.824;2022-12-18T05:53:18;102014.63;;;19.70;38.36
48872;BME280;36154;51.674;7.824;2022-12-18T05:55:44;102016.34;;;19.71;38.48
48872;BME280;36154;51.674;7.824;2022-12-18T05:58:11;102018.06;;;19.72;38.25
48872;BME280;36154;51.674;7.824;2022-12-18T06:00:39;102010.31;;;19.70;38.29
48872;BME280;36154;51.674;7.824;2022-12-18T06:03:06;102018.06;;;19.73;38.37
48872;BME280;36154;51.674;7.824;2022-12-18T06:05:35;102021.50;;;19.74;38.38
48872;BME280;36154;51.674;7.824;2022-12-18T06:08:02;102018.06;;;19.75;38.24
48872;BME280;36154;51.674;7.824;2022-12-18T06:10:30;102019.78;;;19.74;38.22
48872;BME280;36154;51.674;7.824;2022-12-18T06:12:55;102022.34;;;19.76;38.31
48872;BME280;36154;51.674;7.824;2022-12-18T06:15:20;102024.94;;;19.76;38.23
48872;BME280;36154;51.674;7.824;2022-12-18T06:17:46;102031.84;;;19.77;38.14
48872;BME280;36154;51.674;7.824;2022-12-18T06:20:11;102037.88;;;19.78;38.33
48872;BME280;36154;51.674;7.824;2022-12-18T06:22:36;102036.16;;;19.78;38.17
48872;BME280;36154;51.674;7.824;2022-12-18T06:25:02;102040.44;;;19.79;38.36
48872;BME280;36154;51.674;7.824;2022-12-18T06:27:27;102043.91;;;19.78;38.10
48872;BME280;36154;51.674;7.824;2022-12-18T06:29:53;102047.34;;;19.80;38.16
48872;BME280;36154;51.674;7.824;2022-12-18T06:32:18;102045.63;;;19.81;38.16
48872;BME280;36154;51.674;7.824;2022-12-18T06:34:43;102050.78;;;19.82;38.09
48872;BME280;36154;51.674;7.824;2022-12-18T06:37:08;102053.38;;;19.82;38.23
48872;BME280;36154;51.674;7.824;2022-12-18T06:39:34;102052.53;;;19.83;38.19
48872;BME280;36154;51.674;7.824;2022-12-18T06:41:59;102054.22;;;19.84;38.24
48872;BME280;36154;51.674;7.824;2022-12-18T06:44:24;102043.03;;;19.84;38.08
48872;BME280;36154;51.674;7.824;2022-12-18T06:46:49;102054.22;;;19.84;38.08
48872;BME280;36154;51.674;7.824;2022-12-18T06:49:15;102055.09;;;19.85;38.17
48872;BME280;36154;51.674;7.824;2022-12-18T06:51:41;102052.50;;;19.86;38.10
48872;BME280;36154;51.674;7.824;2022-12-18T06:54:07;102053.38;;;19.87;38.24
48872;BME280;36154;51.674;7.824;2022-12-18T06:56:33;102044.72;;;19.86;38.26
48872;BME280;36154;51.674;7.824;2022-12-18T06:58:59;102048.19;;;19.88;38.17
48872;BME280;36154;51.674;7.824;2022-12-18T07:01:24;102043.03;;;19.88;38.09
48872;BME280;36154;51.674;7.824;2022-12-18T07:03:54;102041.28;;;19.89;38.08
48872;BME280;36154;51.674;7.824;2022-12-18T07:06:22;102045.59;;;19.88;38.12
48872;BME280;36154;51.674;7.824;2022-12-18T07:08:49;102040.44;;;19.88;38.27
48872;BME280;36154;51.674;7.824;2022-12-18T07:11:16;102049.03;;;19.90;38.28
48872;BME280;36154;51.674;7.824;2022-12-18T07:13:42;102049.03;;;19.90;38.20
48872;BME280;36154;51.674;7.824;2022-12-18T07:16:09;102045.59;;;19.90;38.16
48872;BME280;36154;51.674;7.824;2022-12-18T07:18:35;102040.44;;;19.88;38.16
48872;BME280;36154;51.674;7.824;2022-12-18T07:21:10;102030.09;;;19.91;38.21
48872;BME280;36154;51.674;7.824;2022-12-18T07:23:35;102040.44;;;19.91;38.18
48872;BME280;36154;51.674;7.824;2022-12-18T07:26:12;102030.94;;;19.90;38.06
48872;BME280;36154;51.674;7.824;2022-12-18T07:28:39;102036.97;;;19.92;38.21
48872;BME280;36154;51.674;7.824;2022-12-18T07:31:12;102038.69;;;19.90;38.15
48872;BME280;36154;51.674;7.824;2022-12-18T07:33:38;102046.44;;;19.92;38.07
48872;BME280;36154;51.674;7.824;2022-12-18T07:36:05;102044.72;;;19.92;37.84
48872;BME280;36154;51.674;7.824;2022-12-18T07:38:32;102040.41;;;19.93;38.26
48872;BME280;36154;51.674;7.824;2022-12-18T07:41:05;102039.53;;;19.94;38.17
48872;BME280;36154;51.674;7.824;2022-12-18T07:43:31;102041.28;;;19.92;38.12
48872;BME280;36154;51.674;7.824;2022-12-18T07:45:56;102044.72;;;19.91;38.12
48872;BME280;36154;51.674;7.824;2022-12-18T07:48:22;102040.44;;;19.88;38.01
48872;BME280;36154;51.674;7.824;2022-12-18T07:50:47;102031.78;;;19.89;38.15
48872;BME280;36154;51.674;7.824;2022-12-18T07:53:13;102041.28;;;19.92;37.97
48872;BME280;36154;51.674;7.824;2022-12-18T07:55:39;102031.78;;;19.92;38.12
48872;BME280;36154;51.674;7.824;2022-12-18T07:58:06;102030.03;;;19.94;38.01
48872;BME280;36154;51.674;7.824;2022-12-18T08:00:32;102025.75;;;19.95;38.18
48872;BME280;36154;51.674;7.824;2022-12-18T08:02:57;102022.28;;;19.96;38.11
48872;BME280;36154;51.674;7.824;2022-12-18T08:05:23;102028.34;;;19.97;38.14
48872;BME280;36154;51.674;7.824;2022-12-18T08:07:48;102024.88;;;19.94;37.97
48872;BME280;36154;51.674;7.824;2022-12-18T08:10:16;102025.75;;;19.98;38.08
48872;BME280;36154;51.674;7.824;2022-12-18T08:12:41;102031.78;;;19.99;38.04
48872;BME280;36154;51.674;7.824;2022-12-18T08:15:07;102032.63;;;19.99;37.95
48872;BME280;36154;51.674;7.824;2022-12-18T08:17:32;102028.28;;;20.00;38.09
48872;BME280;36154;51.674;7.824;2022-12-18T08:19:58;102033.47;;;20.00;38.22
48872;BME280;36154;51.674;7.824;2022-12-18T08:22:23;102030.03;;;20.01;38.21
48872;BME280;36154;51.674;7.824;2022-12-18T08:24:48;102027.44;;;20.01;38.04
48872;BME280;36154;51.674;7.824;2022-12-18T08:27:14;102032.63;;;20.02;38.13
48872;BME280;36154;51.674;7.824;2022-12-18T08:29:39;102027.44;;;20.01;38.08
48872;BME280;36154;51.674;7.824;2022-12-18T08:32:04;102031.75;;;20.02;37.88
48872;BME280;36154;51.674;7.824;2022-12-18T08:34:30;102021.41;;;19.99;38.13
48872;BME280;36154;51.674;7.824;2022-12-18T08:36:55;102021.41;;;20.02;37.97
48872;BME280;36154;51.674;7.824;2022-12-18T08:39:20;102012.75;;;20.03;37.96
48872;BME280;36154;51.674;7.824;2022-12-18T08:41:46;102015.34;;;20.03;38.05
48872;BME280;36154;51.674;7.824;2022-12-18T08:44:31;102008.47;;;20.02;38.06
48872;BME280;36154;51.674;7.824;2022-12-18T08:47:06;101994.66;;;20.03;37.73
48872;BME280;36154;51.674;7.824;2022-12-18T08:49:32;101986.88;;;20.04;37.83
48872;BME280;36154;51.674;7.824;2022-12-18T08:51:58;101983.44;;;20.04;38.10
48872;BME280;36154;51.674;7.824;2022-12-18T08:54:24;101978.28;;;20.04;37.84
48872;BME280;36154;51.674;7.824;2022-12-18T08:56:49;101965.34;;;20.04;38.14
48872;BME280;36154;51.674;7.824;2022-12-18T08:59:15;101966.19;;;20.06;37.97
48872;BME280;36154;51.674;7.824;2022-12-18T09:01:40;101973.94;;;20.06;37.44
48872;BME280;36154;51.674;7.824;2022-12-18T09:04:07;101966.19;;;20.04;38.00
48872;BME280;36154;51.674;7.824;2022-12-18T09:06:32;101967.03;;;20.06;37.94
48872;BME280;36154;51.674;7.824;2022-12-18T09:08:57;101979.13;;;20.06;38.12
48872;BME280;36154;51.674;7.824;2022-12-18T09:11:25;101972.22;;;20.06;37.94
48872;BME280;36154;51.674;7.824;2022-12-18T09:13:51;101979.97;;;20.08;38.02
48872;BME280;36154;51.674;7.824;2022-12-18T09:16:17;101972.19;;;20.09;37.88
48872;BME280;36154;51.674;7.824;2022-12-18T09:18:45;101983.44;;;20.10;37.73
48872;BME280;36154;51.674;7.824;2022-12-18T09:21:12;101973.03;;;20.11;38.00
48872;BME280;36154;51.674;7.824;2022-12-18T09:23:38;101962.72;;;20.10;38.08
48872;BME280;36154;51.674;7.824;2022-12-18T09:26:04;101967.91;;;20.10;38.01
48872;BME280;36154;51.674;7.824;2022-12-18T09:28:29;101970.44;;;20.11;37.95
48872;BME280;36154;51.674;7.824;2022-12-18T09:30:54;101971.34;;;20.12;37.99
48872;BME280;36154;51.674;7.824;2022-12-18T09:33:22;101977.34;;;20.12;38.09
48872;BME280;36154;51.674;7.824;2022-12-18T09:35:47;101978.22;;;20.13;38.69
48872;BME280;36154;51.674;7.824;2022-12-18T09:38:15;101977.34;;;20.14;37.94
48872;BME280;36154;51.674;7.824;2022-12-18T09:41:04;101980.78;;;20.13;38.07
48872;BME280;36154;51.674;7.824;2022-12-18T09:43:43;101976.50;;;20.15;37.89
48872;BME280;36154;51.674;7.824;2022-12-18T09:46:18;101983.38;;;20.15;37.92
48872;BME280;36154;51.674;7.824;2022-12-18T09:48:47;101976.50;;;20.15;37.78
48872;BME280;36154;51.674;7.824;2022-12-18T09:51:20;101983.38;;;20.16;37.98
48872;BME280;36154;51.674;7.824;2022-12-18T09:53:53;101980.78;;;20.15;37.92
48872;BME280;36154;51.674;7.824;2022-12-18T09:56:22;101978.19;;;20.16;38.11
48872;BME280;36154;51.674;7.824;2022-12-18T09:59:00;101971.28;;;20.18;38.14
48872;BME280;36154;51.674;7.824;2022-12-18T10:01:27;101954.91;;;20.19;38.66
48872;BME280;36154;51.674;7.824;2022-12-18T10:03:54;101950.56;;;20.21;38.49
48872;BME280;36154;51.674;7.824;2022-12-18T10:06:35;101948.84;;;20.22;38.38
48872;BME280;36154;51.674;7.824;2022-12-18T10:14:30;101940.19;;;20.24;38.32
48872;BME280;36154;51.674;7.824;2022-12-18T10:17:24;101947.09;;;20.25;38.40
48872;BME280;36154;51.674;7.824;2022-12-18T10:19:56;101941.03;;;20.25;38.33
48872;BME280;36154;51.674;7.824;2022-12-18T10:22:51;101923.81;;;20.25;38.29
48872;BME280;36154;51.674;7.824;2022-12-18T10:25:26;101931.56;;;20.25;38.29
48872;BME280;36154;51.674;7.824;2022-12-18T10:27:57;101931.56;;;20.25;38.41
48872;BME280;36154;51.674;7.824;2022-12-18T10:30:24;101921.22;;;20.25;38.18
48872;BME280;36154;51.674;7.824;2022-12-18T10:32:51;101915.16;;;20.25;38.24
48872;BME280;36154;51.674;7.824;2022-12-18T10:35:21;101897.94;;;20.25;38.03
48872;BME280;36154;51.674;7.824;2022-12-18T10:41:04;101887.59;;;20.24;38.20
48872;BME280;36154;51.674;7.824;2022-12-18T10:43:30;101891.91;;;20.23;38.22
48872;BME280;36154;51.674;7.824;2022-12-18T10:48:36;101878.09;;;20.21;37.87
48872;BME280;36154;51.674;7.824;2022-12-18T10:51:05;101861.72;;;20.21;37.74
48872;BME280;36154;51.674;7.824;2022-12-18T10:53:33;101863.47;;;20.20;37.27
48872;BME280;36154;51.674;7.824;2022-12-18T10:56:02;101855.72;;;20.17;37.01
48872;BME280;36154;51.674;7.824;2022-12-18T10:58:36;101857.41;;;20.18;36.99
48872;BME280;36154;51.674;7.824;2022-12-18T11:06:17;101856.59;;;20.15;36.71
48872;BME280;36154;51.674;7.824;2022-12-18T11:08:57;101859.19;;;20.13;36.72
48872;BME280;36154;51.674;7.824;2022-12-18T11:11:23;101861.78;;;20.11;36.53
48872;BME280;36154;51.674;7.824;2022-12-18T11:14:02;101851.47;;;20.10;36.29
48872;BME280;36154;51.674;7.824;2022-12-18T11:16:30;101836.81;;;20.06;36.38
48872;BME280;36154;51.674;7.824;2022-12-18T11:19:35;101829.91;;;20.08;36.30
48872;BME280;36154;51.674;7.824;2022-12-18T11:24:55;101820.44;;;20.07;36.71
48872;BME280;36154;51.674;7.824;2022-12-18T11:27:21;101810.94;;;20.06;36.81
48872;BME280;36154;51.674;7.824;2022-12-18T11:29:49;101810.94;;;20.06;36.88
48872;BME280;36154;51.674;7.824;2022-12-18T11:32:27;101821.28;;;20.06;36.88
48872;BME280;36154;51.674;7.824;2022-12-18T11:35:03;101798.00;;;20.06;36.98
48872;BME280;36154;51.674;7.824;2022-12-18T11:37:29;101808.38;;;20.04;37.05
48872;BME280;36154;51.674;7.824;2022-12-18T11:40:03;101804.94;;;20.04;37.15
48872;BME280;36154;51.674;7.824;2022-12-18T11:42:38;101801.50;;;20.03;37.11
48872;BME280;36154;51.674;7.824;2022-12-18T11:47:45;101797.19;;;20.01;37.21
48872;BME280;36154;51.674;7.824;2022-12-18T11:53:02;101788.63;;;19.96;37.35
48872;BME280;36154;51.674;7.824;2022-12-18T11:55:37;101785.16;;;19.97;37.47
48872;BME280;36154;51.674;7.824;2022-12-18T11:58:32;101781.72;;;19.94;37.56
48872;BME280;36154;51.674;7.824;2022-12-18T12:01:15;101777.44;;;19.93;37.57
48872;BME280;36154;51.674;7.824;2022-12-18T12:03:48;101780.88;;;19.92;37.44
48872;BME280;36154;51.674;7.824;2022-12-18T12:07:07;101769.69;;;19.90;37.41
48872;BME280;36154;51.674;7.824;2022-12-18T12:12:24;101749.84;;;19.91;37.74
48872;BME280;36154;51.674;7.824;2022-12-18T12:15:05;101748.13;;;19.91;37.80
48872;BME280;36154;51.674;7.824;2022-12-18T12:17:59;101743.81;;;19.93;37.81
48872;BME280;36154;51.674;7.824;2022-12-18T12:23:20;101742.03;;;19.97;37.89
48872;BME280;36154;51.674;7.824;2022-12-18T12:29:07;101744.63;;;19.99;37.79
48872;BME280;36154;51.674;7.824;2022-12-18T12:34:26;101735.09;;;20.01;37.99
48872;BME280;36154;51.674;7.824;2022-12-18T12:39:38;101727.34;;;20.02;38.03
48872;BME280;36154;51.674;7.824;2022-12-18T12:42:18;101726.47;;;20.03;38.18
48872;BME280;36154;51.674;7.824;2022-12-18T12:45:05;101713.47;;;20.06;37.99
48872;BME280;36154;51.674;7.824;2022-12-18T12:47:38;101710.88;;;20.08;38.20
48872;BME280;36154;51.674;7.824;2022-12-18T12:50:13;101710.03;;;20.09;38.02
48872;BME280;36154;51.674;7.824;2022-12-18T12:52:43;101704.84;;;20.10;38.07
48872;BME280;36154;51.674;7.824;2022-12-18T12:55:25;101697.06;;;20.12;38.29
48872;BME280;36154;51.674;7.824;2022-12-18T12:58:11;101696.16;;;20.13;38.25
48872;BME280;36154;51.674;7.824;2022-12-18T13:00:46;101697.03;;;20.15;38.40
48872;BME280;36154;51.674;7.824;2022-12-18T13:06:00;101688.38;;;20.16;38.22
48872;BME280;36154;51.674;7.824;2022-12-18T13:08:34;101684.03;;;20.18;38.26
48872;BME280;36154;51.674;7.824;2022-12-18T13:11:30;101682.34;;;20.17;38.41
48872;BME280;36154;51.674;7.824;2022-12-18T13:14:43;101683.19;;;20.18;38.23
48872;BME280;36154;51.674;7.824;2022-12-18T13:19:50;101676.28;;;20.18;38.04
48872;BME280;36154;51.674;7.824;2022-12-18T13:22:34;101673.69;;;20.18;37.96
48872;BME280;36154;51.674;7.824;2022-12-18T13:24:59;101675.44;;;20.18;38.00
48872;BME280;36154;51.674;7.824;2022-12-18T13:31:13;101656.47;;;20.16;37.92
48872;BME280;36154;51.674;7.824;2022-12-18T13:35:39;101670.28;;;20.15;37.86
48872;BME280;36154;51.674;7.824;2022-12-18T13:40:53;101664.28;;;20.11;37.68
48872;BME280;36154;51.674;7.824;2022-12-18T13:45:49;101666.88;;;20.09;37.71
48872;BME280;36154;51.674;7.824;2022-12-18T13:48:25;101669.50;;;20.08;37.83
48872;BME280;36154;51.674;7.824;2022-12-18T13:51:00;101670.38;;;20.07;37.60
48872;BME280;36154;51.674;7.824;2022-12-18T13:53:42;101673.81;;;20.06;37.66
48872;BME280;36154;51.674;7.824;2022-12-18T13:56:08;101666.09;;;20.03;37.57
48872;BME280;36154;51.674;7.824;2022-12-18T13:58:33;101663.53;;;20.01;37.67
48872;BME280;36154;51.674;7.824;2022-12-18T14:00:58;101657.50;;;20.01;37.68
48872;BME280;36154;51.674;7.824;2022-12-18T14:03:26;101665.28;;;19.98;37.58
48872;BME280;36154;51.674;7.824;2022-12-18T14:05:55;101662.72;;;19.94;37.75
48872;BME280;36154;51.674;7.824;2022-12-18T14:08:21;101669.63;;;19.94;37.66
48872;BME280;36154;51.674;7.824;2022-12-18T14:10:49;101659.31;;;19.92;37.63
48872;BME280;36154;51.674;7.824;2022-12-18T14:13:31;101658.47;;;19.89;37.71